QTR2N WMKK-OTHH
Flight info
| Callsign | QTR2N |
|---|---|
| Flight time | N/A |
| Altitude | 34000 |
| Route | PUGER1D PUGER R461 ISVUR N563 LEGEN/N0487F360 N563 SODEX/N0477F340 N563 UMIBU P899 TOVOX |
| Aircraft | B77W/H-SDE1E2E3FGHIJ2J3J4J5M1RWXY/LB1D1 |
Departure
| Time | 2026-05-01 08:54 |
|---|---|
| Airport | Kuala Lumpur International Airport (WMKK) |
Arrival
| Time | N/A |
|---|---|
| Airport | Hamad International Airport (OTHH) |
| Time | Latitude | Longitude | Altitude | Speed | Heading |
|---|---|---|---|---|---|
| 2026-05-01 08:15 | 2.74525 | 101.71576 | 77 ft | 0 kts | 326° |
| 2026-05-01 08:43 | 2.74521 | 101.71579 | 66 ft | 3 kts | 326° |
| 2026-05-01 08:43 | 2.74498 | 101.71594 | 66 ft | 4 kts | 326° |
| 2026-05-01 08:44 | 2.74479 | 101.71607 | 66 ft | 2 kts | 326° |
| 2026-05-01 08:44 | 2.74459 | 101.71620 | 66 ft | 4 kts | 330° |
| 2026-05-01 08:44 | 2.74440 | 101.71626 | 66 ft | 4 kts | 42° |
| 2026-05-01 08:44 | 2.74432 | 101.71605 | 66 ft | 4 kts | 82° |
| 2026-05-01 08:45 | 2.74427 | 101.71581 | 66 ft | 2 kts | 57° |
| 2026-05-01 08:45 | 2.74426 | 101.71580 | 66 ft | 0 kts | 56° |
| 2026-05-01 08:48 | 2.74429 | 101.71585 | 66 ft | 2 kts | 55° |
| 2026-05-01 08:48 | 2.74442 | 101.71604 | 66 ft | 4 kts | 55° |
| 2026-05-01 08:48 | 2.74461 | 101.71631 | 66 ft | 5 kts | 55° |
| 2026-05-01 08:49 | 2.74479 | 101.71658 | 67 ft | 5 kts | 55° |
| 2026-05-01 08:49 | 2.74498 | 101.71684 | 66 ft | 5 kts | 56° |
| 2026-05-01 08:49 | 2.74516 | 101.71712 | 66 ft | 5 kts | 57° |
| 2026-05-01 08:49 | 2.74533 | 101.71739 | 69 ft | 5 kts | 57° |
| 2026-05-01 08:50 | 2.74551 | 101.71766 | 73 ft | 5 kts | 56° |
| 2026-05-01 08:50 | 2.74570 | 101.71794 | 71 ft | 5 kts | 56° |
| 2026-05-01 08:50 | 2.74595 | 101.71831 | 68 ft | 7 kts | 57° |
| 2026-05-01 08:50 | 2.74623 | 101.71875 | 68 ft | 8 kts | 57° |
| 2026-05-01 08:51 | 2.74653 | 101.71920 | 68 ft | 8 kts | 56° |
| 2026-05-01 08:51 | 2.74683 | 101.71965 | 86 ft | 8 kts | 56° |
| 2026-05-01 08:51 | 2.74713 | 101.72011 | 88 ft | 8 kts | 56° |
| 2026-05-01 08:51 | 2.74743 | 101.72056 | 88 ft | 8 kts | 56° |
| 2026-05-01 08:52 | 2.74774 | 101.72101 | 86 ft | 8 kts | 56° |
| 2026-05-01 08:52 | 2.74805 | 101.72146 | 87 ft | 8 kts | 56° |
| 2026-05-01 08:52 | 2.74839 | 101.72187 | 87 ft | 8 kts | 28° |
| 2026-05-01 08:52 | 2.74890 | 101.72169 | 87 ft | 9 kts | 326° |
| 2026-05-01 08:53 | 2.75040 | 101.72069 | 88 ft | 52 kts | 326° |
| 2026-05-01 08:53 | 2.75534 | 101.71738 | 69 ft | 118 kts | 326° |
| 2026-05-01 08:53 | 2.76384 | 101.71169 | 65 ft | 173 kts | 326° |
| 2026-05-01 08:53 | 2.77486 | 101.70435 | 277 ft | 196 kts | 326° |
| 2026-05-01 08:54 | 2.78644 | 101.69650 | 714 ft | 204 kts | 327° |
| 2026-05-01 08:54 | 2.79853 | 101.68888 | 1079 ft | 212 kts | 332° |
| 2026-05-01 08:54 | 2.81260 | 101.68328 | 1426 ft | 221 kts | 340° |
| 2026-05-01 08:54 | 2.82754 | 101.67830 | 1806 ft | 233 kts | 341° |
| 2026-05-01 08:55 | 2.84334 | 101.67303 | 2183 ft | 244 kts | 341° |
| 2026-05-01 08:55 | 2.85936 | 101.66774 | 2698 ft | 249 kts | 341° |
| 2026-05-01 08:55 | 2.87592 | 101.66177 | 3192 ft | 258 kts | 340° |
| 2026-05-01 08:55 | 2.89307 | 101.65555 | 3658 ft | 267 kts | 341° |
| 2026-05-01 08:56 | 2.91089 | 101.64912 | 4185 ft | 274 kts | 341° |
| 2026-05-01 08:56 | 2.92882 | 101.64282 | 4769 ft | 277 kts | 343° |
| 2026-05-01 08:56 | 2.94715 | 101.63654 | 5044 ft | 279 kts | 342° |
| 2026-05-01 08:56 | 2.96426 | 101.62740 | 5112 ft | 281 kts | 314° |
| 2026-05-01 08:57 | 2.97624 | 101.61196 | 5655 ft | 282 kts | 306° |
| 2026-05-01 08:57 | 2.98791 | 101.59589 | 6231 ft | 287 kts | 307° |
| 2026-05-01 08:57 | 2.99962 | 101.57989 | 6818 ft | 289 kts | 307° |
| 2026-05-01 08:57 | 3.01160 | 101.56352 | 7399 ft | 293 kts | 307° |
| 2026-05-01 08:58 | 3.02369 | 101.54700 | 8021 ft | 294 kts | 307° |
| 2026-05-01 08:58 | 3.03573 | 101.53055 | 8627 ft | 297 kts | 307° |
| 2026-05-01 08:58 | 3.04803 | 101.51376 | 9172 ft | 301 kts | 308° |
| 2026-05-01 08:58 | 3.06046 | 101.49678 | 9772 ft | 302 kts | 307° |
| 2026-05-01 08:59 | 3.07292 | 101.47977 | 10317 ft | 306 kts | 307° |
| 2026-05-01 08:59 | 3.08593 | 101.46205 | 10499 ft | 325 kts | 308° |
| 2026-05-01 08:59 | 3.09974 | 101.44324 | 10662 ft | 345 kts | 308° |
| 2026-05-01 08:59 | 3.11416 | 101.42356 | 10815 ft | 365 kts | 307° |
| 2026-05-01 09:00 | 3.12960 | 101.40249 | 11027 ft | 382 kts | 307° |
| 2026-05-01 09:00 | 3.14558 | 101.38070 | 11471 ft | 392 kts | 307° |
| 2026-05-01 09:00 | 3.16129 | 101.35806 | 11987 ft | 396 kts | 300° |
| 2026-05-01 09:00 | 3.17029 | 101.33185 | 12472 ft | 401 kts | 279° |
| 2026-05-01 09:01 | 3.17447 | 101.30404 | 13045 ft | 407 kts | 279° |
| 2026-05-01 09:01 | 3.17909 | 101.27631 | 13717 ft | 410 kts | 280° |
| 2026-05-01 09:01 | 3.18410 | 101.24813 | 14341 ft | 413 kts | 281° |
| 2026-05-01 09:01 | 3.18932 | 101.21963 | 14942 ft | 416 kts | 281° |
| 2026-05-01 09:02 | 3.19463 | 101.19102 | 15509 ft | 420 kts | 281° |
| 2026-05-01 09:02 | 3.19995 | 101.16244 | 16062 ft | 424 kts | 281° |
| 2026-05-01 09:02 | 3.20539 | 101.13318 | 16625 ft | 428 kts | 281° |
| 2026-05-01 09:02 | 3.21086 | 101.10373 | 17188 ft | 432 kts | 281° |
| 2026-05-01 09:03 | 3.21638 | 101.07396 | 17740 ft | 436 kts | 281° |
| 2026-05-01 09:03 | 3.22007 | 101.05406 | 18097 ft | 439 kts | 281° |
| 2026-05-01 09:03 | 3.22757 | 101.01363 | 18726 ft | 443 kts | 281° |
| 2026-05-01 09:03 | 3.23130 | 100.99347 | 19034 ft | 446 kts | 281° |
| 2026-05-01 09:04 | 3.23945 | 100.95293 | 19661 ft | 449 kts | 283° |
| 2026-05-01 09:04 | 3.24420 | 100.93271 | 19973 ft | 451 kts | 284° |
| 2026-05-01 09:04 | 3.25182 | 100.90196 | 20419 ft | 455 kts | 285° |
| 2026-05-01 09:04 | 3.25960 | 100.87112 | 20872 ft | 458 kts | 285° |
| 2026-05-01 09:05 | 3.26741 | 100.84002 | 21313 ft | 461 kts | 285° |
| 2026-05-01 09:05 | 3.27517 | 100.80867 | 21743 ft | 465 kts | 284° |
| 2026-05-01 09:05 | 3.28279 | 100.77752 | 22187 ft | 467 kts | 284° |
| 2026-05-01 09:05 | 3.29050 | 100.74576 | 22643 ft | 470 kts | 284° |
| 2026-05-01 09:06 | 3.29822 | 100.71379 | 23063 ft | 473 kts | 284° |
| 2026-05-01 09:06 | 3.30598 | 100.68162 | 23463 ft | 476 kts | 284° |
| 2026-05-01 09:06 | 3.31380 | 100.64922 | 23793 ft | 479 kts | 284° |
| 2026-05-01 09:06 | 3.32157 | 100.61702 | 24137 ft | 481 kts | 284° |
| 2026-05-01 09:07 | 3.32946 | 100.58432 | 24491 ft | 483 kts | 284° |
| 2026-05-01 09:07 | 3.33740 | 100.55146 | 24837 ft | 486 kts | 284° |
| 2026-05-01 09:07 | 3.34536 | 100.51851 | 25135 ft | 489 kts | 284° |
| 2026-05-01 09:07 | 3.35328 | 100.48567 | 25467 ft | 491 kts | 284° |
| 2026-05-01 09:08 | 3.36133 | 100.45235 | 25788 ft | 494 kts | 284° |
| 2026-05-01 09:08 | 3.36944 | 100.41873 | 26094 ft | 496 kts | 284° |
| 2026-05-01 09:08 | 3.37759 | 100.38494 | 26420 ft | 498 kts | 284° |
| 2026-05-01 09:08 | 3.38573 | 100.35118 | 26741 ft | 500 kts | 284° |
| 2026-05-01 09:09 | 3.39384 | 100.31759 | 27075 ft | 502 kts | 284° |
| 2026-05-01 09:09 | 3.40167 | 100.28344 | 27395 ft | 503 kts | 281° |
| 2026-05-01 09:09 | 3.40634 | 100.24863 | 27652 ft | 507 kts | 275° |
| 2026-05-01 09:09 | 3.40857 | 100.21316 | 27925 ft | 510 kts | 273° |
| 2026-05-01 09:10 | 3.40979 | 100.17754 | 28195 ft | 512 kts | 272° |
| 2026-05-01 09:10 | 3.41086 | 100.14228 | 28446 ft | 515 kts | 272° |
| 2026-05-01 09:10 | 3.41220 | 100.10632 | 28710 ft | 517 kts | 273° |
| 2026-05-01 09:10 | 3.41391 | 100.07017 | 28983 ft | 519 kts | 274° |
| 2026-05-01 09:11 | 3.41593 | 100.03399 | 29206 ft | 520 kts | 274° |
| 2026-05-01 09:11 | 3.41813 | 99.99801 | 29470 ft | 522 kts | 274° |
| 2026-05-01 09:11 | 3.42045 | 99.96167 | 29799 ft | 522 kts | 274° |
| 2026-05-01 09:11 | 3.42279 | 99.92537 | 30125 ft | 521 kts | 274° |
| 2026-05-01 09:12 | 3.42510 | 99.88918 | 30459 ft | 519 kts | 274° |
| 2026-05-01 09:12 | 3.42736 | 99.85357 | 30784 ft | 518 kts | 274° |
| 2026-05-01 09:12 | 3.42962 | 99.81754 | 31085 ft | 517 kts | 274° |
| 2026-05-01 09:12 | 3.43187 | 99.78142 | 31346 ft | 518 kts | 274° |
| 2026-05-01 09:13 | 3.43411 | 99.74535 | 31616 ft | 518 kts | 274° |
| 2026-05-01 09:13 | 3.43631 | 99.70981 | 31930 ft | 517 kts | 274° |
| 2026-05-01 09:13 | 3.43852 | 99.67403 | 32247 ft | 516 kts | 273° |
| 2026-05-01 09:13 | 3.44074 | 99.63815 | 32550 ft | 515 kts | 273° |
| 2026-05-01 09:14 | 3.44296 | 99.60232 | 32834 ft | 515 kts | 273° |
| 2026-05-01 09:14 | 3.44518 | 99.56651 | 33119 ft | 514 kts | 273° |
| 2026-05-01 09:14 | 3.44738 | 99.53081 | 33403 ft | 513 kts | 273° |
| 2026-05-01 09:14 | 3.44959 | 99.49517 | 33685 ft | 513 kts | 273° |
| 2026-05-01 09:15 | 3.45399 | 99.42383 | 33818 ft | 517 kts | 273° |
| 2026-05-01 09:15 | 3.45839 | 99.35260 | 33818 ft | 515 kts | 273° |
| 2026-05-01 09:16 | 3.46279 | 99.28120 | 33819 ft | 512 kts | 273° |
| 2026-05-01 09:17 | 3.46933 | 99.17487 | 33814 ft | 511 kts | 273° |
| 2026-05-01 09:17 | 3.47589 | 99.06798 | 33807 ft | 513 kts | 273° |
| 2026-05-01 09:18 | 3.48245 | 98.96100 | 33815 ft | 516 kts | 273° |
| 2026-05-01 09:19 | 3.48904 | 98.85325 | 33815 ft | 519 kts | 273° |
| 2026-05-01 09:20 | 3.49564 | 98.74523 | 33824 ft | 520 kts | 273° |
| 2026-05-01 09:21 | 3.51180 | 98.60165 | 33818 ft | 517 kts | 285° |
| 2026-05-01 09:21 | 3.55132 | 98.50191 | 33824 ft | 514 kts | 295° |
| 2026-05-01 09:22 | 3.61152 | 98.37264 | 33827 ft | 512 kts | 295° |
| 2026-05-01 09:23 | 3.65599 | 98.27540 | 33838 ft | 510 kts | 294° |
| 2026-05-01 09:24 | 3.69995 | 98.17894 | 33860 ft | 507 kts | 294° |
| 2026-05-01 09:25 | 3.75828 | 98.05104 | 33863 ft | 505 kts | 294° |
| 2026-05-01 09:26 | 3.80210 | 97.95494 | 33868 ft | 505 kts | 294° |
| 2026-05-01 09:26 | 3.84575 | 97.85917 | 33900 ft | 505 kts | 294° |
| 2026-05-01 09:27 | 3.88942 | 97.76333 | 33907 ft | 505 kts | 294° |
| 2026-05-01 09:28 | 3.91860 | 97.69927 | 33935 ft | 504 kts | 294° |
| 2026-05-01 09:28 | 3.94772 | 97.63532 | 33935 ft | 504 kts | 294° |
| 2026-05-01 09:29 | 3.99131 | 97.53957 | 33945 ft | 504 kts | 294° |
| 2026-05-01 09:30 | 4.03484 | 97.44392 | 33954 ft | 505 kts | 294° |
| 2026-05-01 09:30 | 4.07863 | 97.34767 | 33957 ft | 507 kts | 294° |
| 2026-05-01 09:31 | 4.10798 | 97.28314 | 33954 ft | 508 kts | 294° |
| 2026-05-01 09:32 | 4.15189 | 97.18654 | 33947 ft | 508 kts | 294° |
| 2026-05-01 09:32 | 4.19565 | 97.09028 | 33953 ft | 508 kts | 294° |
| 2026-05-01 09:33 | 4.22494 | 97.02581 | 33950 ft | 508 kts | 294° |
| 2026-05-01 09:34 | 4.26883 | 96.92918 | 33937 ft | 507 kts | 294° |
| 2026-05-01 09:34 | 4.31244 | 96.83311 | 33939 ft | 506 kts | 295° |
| 2026-05-01 09:35 | 4.35606 | 96.73700 | 33943 ft | 505 kts | 295° |
| 2026-05-01 09:36 | 4.38516 | 96.67285 | 33926 ft | 505 kts | 295° |
| 2026-05-01 09:36 | 4.41431 | 96.60859 | 33934 ft | 505 kts | 295° |
| 2026-05-01 09:37 | 4.44318 | 96.54492 | 33937 ft | 505 kts | 295° |
| 2026-05-01 09:37 | 4.48685 | 96.44858 | 33920 ft | 505 kts | 295° |
| 2026-05-01 09:38 | 4.53025 | 96.35279 | 33902 ft | 503 kts | 295° |
| 2026-05-01 09:39 | 4.57349 | 96.25733 | 33906 ft | 502 kts | 295° |
| 2026-05-01 09:39 | 4.60240 | 96.19347 | 33893 ft | 502 kts | 295° |
| 2026-05-01 09:40 | 4.64557 | 96.09811 | 33892 ft | 502 kts | 295° |
| 2026-05-01 09:41 | 4.67448 | 96.03420 | 33876 ft | 502 kts | 295° |
| 2026-05-01 09:41 | 4.71768 | 95.93869 | 33898 ft | 503 kts | 295° |
| 2026-05-01 09:42 | 4.74660 | 95.87471 | 33885 ft | 503 kts | 295° |
| 2026-05-01 09:43 | 4.80423 | 95.74719 | 33869 ft | 503 kts | 295° |
| 2026-05-01 09:43 | 4.83317 | 95.68314 | 33867 ft | 504 kts | 295° |
| 2026-05-01 09:44 | 4.87650 | 95.58718 | 33867 ft | 505 kts | 295° |
| 2026-05-01 09:45 | 4.90536 | 95.52325 | 33871 ft | 506 kts | 295° |
| 2026-05-01 09:45 | 4.94906 | 95.42642 | 33867 ft | 506 kts | 294° |
| 2026-05-01 09:46 | 4.97809 | 95.36205 | 33858 ft | 505 kts | 294° |
| 2026-05-01 09:46 | 5.00687 | 95.29821 | 33839 ft | 504 kts | 294° |
| 2026-05-01 09:47 | 5.03576 | 95.23412 | 33847 ft | 504 kts | 294° |
| 2026-05-01 09:47 | 5.06478 | 95.16972 | 33848 ft | 505 kts | 294° |
| 2026-05-01 09:48 | 5.09364 | 95.10568 | 33849 ft | 506 kts | 294° |
| 2026-05-01 09:48 | 5.12270 | 95.04115 | 33847 ft | 507 kts | 294° |
| 2026-05-01 09:49 | 5.15181 | 94.97650 | 33854 ft | 508 kts | 294° |
| 2026-05-01 09:49 | 5.18079 | 94.91212 | 33846 ft | 510 kts | 294° |
| 2026-05-01 09:50 | 5.20518 | 94.85791 | 33854 ft | 513 kts | 294° |
| 2026-05-01 09:50 | 5.23944 | 94.78173 | 33853 ft | 516 kts | 294° |
| 2026-05-01 09:51 | 5.26406 | 94.72699 | 33851 ft | 518 kts | 294° |
| 2026-05-01 09:51 | 5.29364 | 94.66119 | 33851 ft | 519 kts | 294° |
| 2026-05-01 09:52 | 5.32337 | 94.59503 | 33849 ft | 516 kts | 294° |
| 2026-05-01 09:52 | 5.35250 | 94.53016 | 33839 ft | 510 kts | 295° |
| 2026-05-01 09:53 | 5.38181 | 94.46493 | 33856 ft | 514 kts | 295° |
| 2026-05-01 09:53 | 5.41131 | 94.39921 | 33859 ft | 517 kts | 295° |
| 2026-05-01 09:54 | 5.44073 | 94.33365 | 33852 ft | 518 kts | 295° |
| 2026-05-01 09:54 | 5.47036 | 94.26761 | 33847 ft | 517 kts | 295° |
| 2026-05-01 09:55 | 5.49990 | 94.20173 | 33845 ft | 515 kts | 295° |
| 2026-05-01 09:55 | 5.52909 | 94.13663 | 33842 ft | 514 kts | 294° |
| 2026-05-01 09:56 | 5.55847 | 94.07107 | 33849 ft | 513 kts | 294° |
| 2026-05-01 09:56 | 5.58781 | 94.00560 | 33852 ft | 513 kts | 294° |
| 2026-05-01 09:57 | 5.61700 | 93.94040 | 33852 ft | 513 kts | 294° |
| 2026-05-01 09:57 | 5.64635 | 93.87486 | 33851 ft | 514 kts | 294° |
| 2026-05-01 09:58 | 5.67556 | 93.80959 | 33850 ft | 514 kts | 294° |
| 2026-05-01 09:58 | 5.70458 | 93.74478 | 33840 ft | 500 kts | 293° |
| 2026-05-01 09:59 | 5.73307 | 93.68104 | 33856 ft | 507 kts | 293° |
| 2026-05-01 09:59 | 5.76218 | 93.61588 | 33857 ft | 512 kts | 293° |
| 2026-05-01 10:00 | 5.79142 | 93.55047 | 33845 ft | 513 kts | 293° |
| 2026-05-01 10:00 | 5.82055 | 93.48526 | 33846 ft | 513 kts | 293° |
| 2026-05-01 10:01 | 5.84968 | 93.42005 | 33844 ft | 512 kts | 293° |
| 2026-05-01 10:01 | 5.87890 | 93.35461 | 33841 ft | 511 kts | 293° |
| 2026-05-01 10:02 | 5.90782 | 93.28978 | 33843 ft | 510 kts | 293° |
| 2026-05-01 10:02 | 5.93684 | 93.22473 | 33841 ft | 509 kts | 293° |
| 2026-05-01 10:03 | 5.96569 | 93.16001 | 33845 ft | 508 kts | 293° |
| 2026-05-01 10:03 | 5.99440 | 93.09561 | 33844 ft | 508 kts | 293° |
| 2026-05-01 10:04 | 6.02362 | 93.03072 | 33849 ft | 504 kts | 294° |
| 2026-05-01 10:04 | 6.05239 | 92.96789 | 33833 ft | 490 kts | 294° |
| 2026-05-01 10:05 | 6.08087 | 92.90567 | 33840 ft | 489 kts | 294° |
| 2026-05-01 10:05 | 6.10910 | 92.84379 | 33848 ft | 490 kts | 294° |
| 2026-05-01 10:06 | 6.13762 | 92.78116 | 33850 ft | 492 kts | 294° |
| 2026-05-01 10:06 | 6.16620 | 92.71837 | 33850 ft | 495 kts | 294° |
| 2026-05-01 10:07 | 6.19474 | 92.65566 | 33845 ft | 496 kts | 294° |
| 2026-05-01 10:07 | 6.22356 | 92.59230 | 33844 ft | 498 kts | 294° |
| 2026-05-01 10:08 | 6.26673 | 92.49735 | 33844 ft | 499 kts | 294° |
| 2026-05-01 10:09 | 6.29544 | 92.43419 | 33843 ft | 499 kts | 294° |
| 2026-05-01 10:09 | 6.32437 | 92.37053 | 33844 ft | 498 kts | 294° |
| 2026-05-01 10:10 | 6.35305 | 92.30737 | 33840 ft | 497 kts | 294° |
| 2026-05-01 10:10 | 6.39599 | 92.21279 | 33844 ft | 496 kts | 293° |
| 2026-05-01 10:11 | 6.42470 | 92.14951 | 33845 ft | 496 kts | 293° |
| 2026-05-01 10:11 | 6.45340 | 92.08622 | 33849 ft | 496 kts | 293° |
| 2026-05-01 10:12 | 6.48192 | 92.02333 | 33849 ft | 497 kts | 293° |
| 2026-05-01 10:13 | 6.52504 | 91.92818 | 33847 ft | 497 kts | 293° |
| 2026-05-01 10:13 | 6.55360 | 91.86511 | 33846 ft | 498 kts | 293° |
| 2026-05-01 10:14 | 6.59680 | 91.76968 | 33850 ft | 499 kts | 293° |
| 2026-05-01 10:14 | 6.62545 | 91.70638 | 33850 ft | 500 kts | 293° |
| 2026-05-01 10:15 | 6.65417 | 91.64289 | 33850 ft | 500 kts | 293° |
| 2026-05-01 10:15 | 6.68308 | 91.57895 | 33849 ft | 500 kts | 293° |
| 2026-05-01 10:16 | 6.71176 | 91.51549 | 33853 ft | 500 kts | 293° |
| 2026-05-01 10:17 | 6.75479 | 91.42022 | 33846 ft | 498 kts | 294° |
| 2026-05-01 10:17 | 6.79778 | 91.32501 | 33848 ft | 497 kts | 294° |
| 2026-05-01 10:18 | 6.84048 | 91.23036 | 33849 ft | 496 kts | 293° |
| 2026-05-01 10:19 | 6.86904 | 91.16703 | 33849 ft | 496 kts | 293° |
| 2026-05-01 10:19 | 6.89756 | 91.10375 | 33852 ft | 496 kts | 293° |
| 2026-05-01 10:20 | 6.94036 | 91.00876 | 33850 ft | 498 kts | 293° |
| 2026-05-01 10:20 | 6.96900 | 90.94516 | 33849 ft | 499 kts | 293° |
| 2026-05-01 10:21 | 7.01181 | 90.85004 | 33848 ft | 500 kts | 293° |
| 2026-05-01 10:22 | 7.05488 | 90.75429 | 33852 ft | 500 kts | 293° |
| 2026-05-01 10:23 | 7.09770 | 90.65902 | 33852 ft | 499 kts | 293° |
| 2026-05-01 10:23 | 7.14062 | 90.56348 | 33854 ft | 498 kts | 293° |
| 2026-05-01 10:24 | 7.19757 | 90.43660 | 33855 ft | 497 kts | 293° |
| 2026-05-01 10:25 | 7.25429 | 90.31012 | 33857 ft | 495 kts | 293° |
| 2026-05-01 10:26 | 7.28268 | 90.24677 | 33852 ft | 493 kts | 293° |
| 2026-05-01 10:27 | 7.33868 | 90.12174 | 33853 ft | 490 kts | 293° |
| 2026-05-01 10:28 | 7.38087 | 90.02748 | 33853 ft | 490 kts | 293° |
| 2026-05-01 10:28 | 7.42268 | 89.93399 | 33860 ft | 489 kts | 293° |
| 2026-05-01 10:29 | 7.46467 | 89.84005 | 33856 ft | 488 kts | 293° |
| 2026-05-01 10:30 | 7.52026 | 89.71556 | 33858 ft | 487 kts | 293° |
| 2026-05-01 10:31 | 7.57595 | 89.59075 | 33855 ft | 487 kts | 293° |
| 2026-05-01 10:32 | 7.61758 | 89.49739 | 33854 ft | 488 kts | 293° |
| 2026-05-01 10:33 | 7.67307 | 89.37280 | 33858 ft | 488 kts | 293° |
| 2026-05-01 10:34 | 7.71503 | 89.27930 | 33854 ft | 488 kts | 294° |
| 2026-05-01 10:34 | 7.74334 | 89.21758 | 33861 ft | 488 kts | 294° |
| 2026-05-01 10:35 | 7.78613 | 89.12422 | 33855 ft | 487 kts | 294° |
| 2026-05-01 10:35 | 7.81435 | 89.06244 | 33855 ft | 487 kts | 294° |
| 2026-05-01 10:36 | 7.85684 | 88.96926 | 33855 ft | 487 kts | 294° |
| 2026-05-01 10:37 | 7.88511 | 88.90724 | 33857 ft | 487 kts | 294° |
| 2026-05-01 10:37 | 7.92266 | 88.82481 | 33856 ft | 486 kts | 294° |
| 2026-05-01 10:38 | 7.95554 | 88.75261 | 33854 ft | 486 kts | 294° |
| 2026-05-01 10:38 | 7.97904 | 88.70097 | 33855 ft | 486 kts | 294° |
| 2026-05-01 10:39 | 8.00727 | 88.63892 | 33855 ft | 485 kts | 294° |
| 2026-05-01 10:39 | 8.03529 | 88.57729 | 33855 ft | 485 kts | 294° |
| 2026-05-01 10:40 | 8.06346 | 88.51533 | 33855 ft | 485 kts | 294° |
| 2026-05-01 10:40 | 8.09157 | 88.45343 | 33855 ft | 485 kts | 294° |
| 2026-05-01 10:41 | 8.11974 | 88.39141 | 33855 ft | 485 kts | 294° |
| 2026-05-01 10:42 | 8.16173 | 88.29887 | 33854 ft | 485 kts | 294° |
| 2026-05-01 10:42 | 8.18979 | 88.23702 | 33854 ft | 485 kts | 294° |
| 2026-05-01 10:43 | 8.21786 | 88.17510 | 33855 ft | 484 kts | 294° |
| 2026-05-01 10:43 | 8.24592 | 88.11317 | 33855 ft | 484 kts | 294° |
| 2026-05-01 10:44 | 8.27382 | 88.05158 | 33855 ft | 485 kts | 294° |
| 2026-05-01 10:44 | 8.30191 | 87.98951 | 33856 ft | 485 kts | 294° |
| 2026-05-01 10:45 | 8.33003 | 87.92737 | 33851 ft | 486 kts | 294° |
| 2026-05-01 10:45 | 8.35797 | 87.86558 | 33862 ft | 485 kts | 294° |
| 2026-05-01 10:46 | 8.38598 | 87.80362 | 33851 ft | 484 kts | 294° |
| 2026-05-01 10:46 | 8.41388 | 87.74187 | 33853 ft | 483 kts | 294° |
| 2026-05-01 10:47 | 8.44177 | 87.68012 | 33852 ft | 482 kts | 294° |
| 2026-05-01 10:47 | 8.46939 | 87.61891 | 33855 ft | 481 kts | 294° |
| 2026-05-01 10:48 | 8.49719 | 87.55729 | 33858 ft | 482 kts | 294° |
| 2026-05-01 10:48 | 8.52500 | 87.49561 | 33852 ft | 482 kts | 294° |
| 2026-05-01 10:49 | 8.55287 | 87.43379 | 33850 ft | 483 kts | 294° |
| 2026-05-01 10:49 | 8.58056 | 87.37231 | 33853 ft | 483 kts | 294° |
| 2026-05-01 10:50 | 8.60843 | 87.31041 | 33854 ft | 484 kts | 294° |
| 2026-05-01 10:50 | 8.63634 | 87.24840 | 33853 ft | 485 kts | 294° |
| 2026-05-01 10:51 | 8.66383 | 87.18727 | 33853 ft | 485 kts | 294° |
| 2026-05-01 10:51 | 8.69183 | 87.12500 | 33853 ft | 486 kts | 294° |
| 2026-05-01 10:52 | 8.71984 | 87.06267 | 33857 ft | 486 kts | 294° |
| 2026-05-01 10:52 | 8.74764 | 87.00075 | 33850 ft | 485 kts | 294° |
| 2026-05-01 10:53 | 8.77555 | 86.93860 | 33846 ft | 484 kts | 294° |
| 2026-05-01 10:53 | 8.80315 | 86.87706 | 33848 ft | 483 kts | 294° |
| 2026-05-01 10:54 | 8.83094 | 86.81508 | 33848 ft | 482 kts | 294° |
| 2026-05-01 10:54 | 8.85859 | 86.75339 | 33846 ft | 481 kts | 294° |
| 2026-05-01 10:55 | 8.88625 | 86.69165 | 33846 ft | 481 kts | 294° |
| 2026-05-01 10:55 | 8.91377 | 86.63018 | 33846 ft | 481 kts | 294° |
| 2026-05-01 10:56 | 8.94127 | 86.56873 | 33845 ft | 482 kts | 294° |
| 2026-05-01 10:56 | 8.96894 | 86.50685 | 33843 ft | 483 kts | 294° |
| 2026-05-01 10:57 | 8.99668 | 86.44481 | 33845 ft | 483 kts | 294° |
| 2026-05-01 10:57 | 9.02422 | 86.38315 | 33844 ft | 484 kts | 294° |
| 2026-05-01 10:58 | 9.05200 | 86.32094 | 33844 ft | 484 kts | 294° |
| 2026-05-01 10:58 | 9.07975 | 86.25877 | 33854 ft | 484 kts | 293° |
| 2026-05-01 10:59 | 9.10731 | 86.19700 | 33845 ft | 482 kts | 293° |
| 2026-05-01 10:59 | 9.13489 | 86.13512 | 33837 ft | 480 kts | 293° |
| 2026-05-01 11:00 | 9.16222 | 86.07379 | 33839 ft | 479 kts | 293° |
| 2026-05-01 11:00 | 9.18966 | 86.01217 | 33845 ft | 478 kts | 293° |
| 2026-05-01 11:01 | 9.21695 | 85.95084 | 33847 ft | 477 kts | 293° |
| 2026-05-01 11:01 | 9.24408 | 85.88984 | 33847 ft | 478 kts | 293° |
| 2026-05-01 11:02 | 9.27181 | 85.82851 | 33843 ft | 478 kts | 294° |
| 2026-05-01 11:02 | 9.30028 | 85.76747 | 33844 ft | 479 kts | 294° |
| 2026-05-01 11:03 | 9.32864 | 85.70674 | 33845 ft | 480 kts | 294° |
| 2026-05-01 11:03 | 9.35714 | 85.64540 | 33843 ft | 481 kts | 294° |
| 2026-05-01 11:04 | 9.38544 | 85.58431 | 33840 ft | 481 kts | 294° |
| 2026-05-01 11:04 | 9.41391 | 85.52278 | 33842 ft | 481 kts | 294° |
| 2026-05-01 11:05 | 9.44220 | 85.46161 | 33850 ft | 480 kts | 294° |
| 2026-05-01 11:05 | 9.47036 | 85.40070 | 33838 ft | 478 kts | 294° |
| 2026-05-01 11:06 | 9.49859 | 85.33963 | 33838 ft | 476 kts | 294° |
| 2026-05-01 11:06 | 9.52648 | 85.27927 | 33836 ft | 474 kts | 294° |
| 2026-05-01 11:07 | 9.56840 | 85.18844 | 33837 ft | 473 kts | 294° |
| 2026-05-01 11:07 | 9.59633 | 85.12788 | 33842 ft | 473 kts | 294° |
| 2026-05-01 11:08 | 9.62414 | 85.06757 | 33840 ft | 474 kts | 294° |
| 2026-05-01 11:09 | 9.66603 | 84.97663 | 33839 ft | 476 kts | 295° |
| 2026-05-01 11:09 | 9.69417 | 84.91552 | 33839 ft | 477 kts | 295° |
| 2026-05-01 11:10 | 9.73616 | 84.82426 | 33837 ft | 477 kts | 295° |
| 2026-05-01 11:10 | 9.76429 | 84.76307 | 33837 ft | 478 kts | 295° |
| 2026-05-01 11:11 | 9.79224 | 84.70224 | 33839 ft | 478 kts | 295° |
| 2026-05-01 11:11 | 9.82012 | 84.64153 | 33834 ft | 476 kts | 295° |
| 2026-05-01 11:12 | 9.84812 | 84.58055 | 33827 ft | 475 kts | 295° |
| 2026-05-01 11:12 | 9.87587 | 84.52005 | 33829 ft | 474 kts | 295° |
| 2026-05-01 11:13 | 9.90372 | 84.45931 | 33828 ft | 473 kts | 295° |
| 2026-05-01 11:13 | 9.93148 | 84.39871 | 33830 ft | 473 kts | 295° |
| 2026-05-01 11:14 | 9.95912 | 84.33837 | 33835 ft | 473 kts | 295° |
| 2026-05-01 11:14 | 9.98692 | 84.27762 | 33831 ft | 474 kts | 295° |
| 2026-05-01 11:15 | 10.01458 | 84.21717 | 33834 ft | 475 kts | 295° |
| 2026-05-01 11:15 | 10.04245 | 84.15619 | 33832 ft | 476 kts | 295° |
| 2026-05-01 11:16 | 10.07035 | 84.09516 | 33829 ft | 477 kts | 295° |
| 2026-05-01 11:16 | 10.09811 | 84.03436 | 33834 ft | 477 kts | 295° |
| 2026-05-01 11:17 | 10.12607 | 83.97311 | 33828 ft | 477 kts | 295° |
| 2026-05-01 11:17 | 10.15402 | 83.91181 | 33833 ft | 477 kts | 295° |
| 2026-05-01 11:18 | 10.18179 | 83.85089 | 33832 ft | 478 kts | 295° |
| 2026-05-01 11:18 | 10.20974 | 83.78955 | 33828 ft | 478 kts | 295° |
| 2026-05-01 11:19 | 10.23745 | 83.72870 | 33828 ft | 477 kts | 295° |
| 2026-05-01 11:19 | 10.26539 | 83.66732 | 33827 ft | 477 kts | 295° |
| 2026-05-01 11:20 | 10.29327 | 83.60601 | 33828 ft | 477 kts | 295° |
| 2026-05-01 11:20 | 10.32092 | 83.54517 | 33825 ft | 477 kts | 295° |
| 2026-05-01 11:21 | 10.34872 | 83.48396 | 33829 ft | 476 kts | 296° |
| 2026-05-01 11:21 | 10.37656 | 83.42265 | 33821 ft | 476 kts | 296° |
| 2026-05-01 11:22 | 10.40414 | 83.36187 | 33824 ft | 476 kts | 296° |
| 2026-05-01 11:22 | 10.43187 | 83.30071 | 33825 ft | 475 kts | 296° |
| 2026-05-01 11:23 | 10.45939 | 83.23999 | 33826 ft | 475 kts | 295° |
| 2026-05-01 11:23 | 10.48711 | 83.17879 | 33824 ft | 475 kts | 295° |
| 2026-05-01 11:24 | 10.51475 | 83.11774 | 33833 ft | 474 kts | 295° |
| 2026-05-01 11:25 | 10.55590 | 83.02673 | 33815 ft | 472 kts | 295° |
| 2026-05-01 11:25 | 10.59686 | 82.93609 | 33819 ft | 470 kts | 295° |
| 2026-05-01 11:26 | 10.63327 | 82.85543 | 33817 ft | 470 kts | 295° |
| 2026-05-01 11:27 | 10.66064 | 82.79506 | 33815 ft | 470 kts | 295° |
| 2026-05-01 11:27 | 10.68794 | 82.73496 | 33815 ft | 470 kts | 295° |
| 2026-05-01 11:28 | 10.71538 | 82.67450 | 33816 ft | 471 kts | 295° |
| 2026-05-01 11:28 | 10.74283 | 82.61393 | 33817 ft | 471 kts | 295° |
| 2026-05-01 11:29 | 10.78393 | 82.52313 | 33813 ft | 472 kts | 295° |
| 2026-05-01 11:30 | 10.82511 | 82.43209 | 33813 ft | 472 kts | 295° |
| 2026-05-01 11:30 | 10.85259 | 82.37128 | 33807 ft | 473 kts | 295° |
| 2026-05-01 11:31 | 10.87999 | 82.31064 | 33810 ft | 474 kts | 294° |
| 2026-05-01 11:31 | 10.90740 | 82.24990 | 33813 ft | 474 kts | 294° |
| 2026-05-01 11:32 | 10.93496 | 82.18880 | 33805 ft | 475 kts | 294° |
| 2026-05-01 11:32 | 10.96256 | 82.12758 | 33809 ft | 475 kts | 294° |
| 2026-05-01 11:33 | 10.99001 | 82.06668 | 33811 ft | 475 kts | 294° |
| 2026-05-01 11:33 | 11.01765 | 82.00528 | 33808 ft | 475 kts | 294° |
| 2026-05-01 11:34 | 11.04507 | 81.94436 | 33808 ft | 475 kts | 294° |
| 2026-05-01 11:34 | 11.07260 | 81.88312 | 33802 ft | 474 kts | 294° |
| 2026-05-01 11:35 | 11.09993 | 81.82232 | 33798 ft | 474 kts | 294° |
| 2026-05-01 11:35 | 11.12738 | 81.76120 | 33800 ft | 474 kts | 294° |
| 2026-05-01 11:36 | 11.15468 | 81.70038 | 33801 ft | 474 kts | 294° |
| 2026-05-01 11:36 | 11.18212 | 81.63920 | 33796 ft | 474 kts | 294° |
| 2026-05-01 11:37 | 11.20949 | 81.57814 | 33796 ft | 477 kts | 294° |
| 2026-05-01 11:37 | 11.23713 | 81.51644 | 33804 ft | 479 kts | 294° |
| 2026-05-01 11:38 | 11.26479 | 81.45467 | 33796 ft | 482 kts | 294° |
| 2026-05-01 11:38 | 11.29267 | 81.39235 | 33788 ft | 482 kts | 294° |
| 2026-05-01 11:39 | 11.32047 | 81.33017 | 33789 ft | 482 kts | 294° |
| 2026-05-01 11:39 | 11.34813 | 81.26826 | 33789 ft | 482 kts | 295° |
| 2026-05-01 11:40 | 11.37600 | 81.20585 | 33788 ft | 483 kts | 295° |
| 2026-05-01 11:40 | 11.40373 | 81.14371 | 33790 ft | 484 kts | 295° |
| 2026-05-01 11:41 | 11.43164 | 81.08111 | 33790 ft | 485 kts | 295° |
| 2026-05-01 11:41 | 11.45960 | 81.01836 | 33797 ft | 485 kts | 295° |
| 2026-05-01 11:42 | 11.48736 | 80.95604 | 33790 ft | 485 kts | 295° |
| 2026-05-01 11:42 | 11.51533 | 80.89316 | 33777 ft | 485 kts | 295° |
| 2026-05-01 11:43 | 11.54314 | 80.83063 | 33783 ft | 486 kts | 295° |
| 2026-05-01 11:43 | 11.57111 | 80.76770 | 33792 ft | 487 kts | 295° |
| 2026-05-01 11:44 | 11.61298 | 80.67341 | 33778 ft | 488 kts | 295° |
| 2026-05-01 11:44 | 11.64106 | 80.61012 | 33777 ft | 488 kts | 295° |
| 2026-05-01 11:45 | 11.66899 | 80.54712 | 33779 ft | 488 kts | 295° |
| 2026-05-01 11:45 | 11.69704 | 80.48379 | 33775 ft | 489 kts | 295° |
| 2026-05-01 11:46 | 11.72489 | 80.42087 | 33779 ft | 489 kts | 295° |
| 2026-05-01 11:46 | 11.75299 | 80.35737 | 33773 ft | 489 kts | 295° |
| 2026-05-01 11:47 | 11.78101 | 80.29397 | 33767 ft | 489 kts | 295° |
| 2026-05-01 11:47 | 11.80893 | 80.23077 | 33767 ft | 489 kts | 295° |
| 2026-05-01 11:48 | 11.83695 | 80.16729 | 33765 ft | 489 kts | 295° |
| 2026-05-01 11:48 | 11.86474 | 80.10427 | 33766 ft | 490 kts | 295° |
| 2026-05-01 11:49 | 11.89263 | 80.04057 | 33766 ft | 490 kts | 295° |
| 2026-05-01 11:49 | 11.92028 | 79.97717 | 33771 ft | 490 kts | 296° |
| 2026-05-01 11:50 | 11.94790 | 79.91385 | 33769 ft | 489 kts | 295° |
| 2026-05-01 11:50 | 11.97565 | 79.85023 | 33746 ft | 489 kts | 295° |
| 2026-05-01 11:51 | 12.00328 | 79.78682 | 33746 ft | 489 kts | 295° |
| 2026-05-01 11:51 | 12.03099 | 79.72320 | 33749 ft | 489 kts | 295° |
| 2026-05-01 11:52 | 12.05863 | 79.65968 | 33776 ft | 489 kts | 295° |
| 2026-05-01 11:52 | 12.08620 | 79.59629 | 33775 ft | 490 kts | 295° |
| 2026-05-01 11:53 | 12.11457 | 79.53322 | 33772 ft | 490 kts | 296° |
| 2026-05-01 11:53 | 12.14357 | 79.47010 | 33777 ft | 491 kts | 296° |
| 2026-05-01 11:54 | 12.17267 | 79.40657 | 33773 ft | 491 kts | 296° |
| 2026-05-01 11:54 | 12.20137 | 79.34359 | 33778 ft | 490 kts | 296° |
| 2026-05-01 11:55 | 12.23003 | 79.28051 | 33767 ft | 489 kts | 296° |
| 2026-05-01 11:55 | 12.25847 | 79.21787 | 33767 ft | 487 kts | 296° |
| 2026-05-01 11:56 | 12.28698 | 79.15504 | 33772 ft | 486 kts | 296° |
| 2026-05-01 11:56 | 12.31550 | 79.09216 | 33777 ft | 485 kts | 296° |
| 2026-05-01 11:57 | 12.34376 | 79.02981 | 33770 ft | 486 kts | 296° |
| 2026-05-01 11:57 | 12.37230 | 78.96679 | 33792 ft | 487 kts | 296° |
| 2026-05-01 11:58 | 12.40065 | 78.90416 | 33804 ft | 489 kts | 296° |
| 2026-05-01 11:59 | 12.44367 | 78.80901 | 33822 ft | 491 kts | 296° |
| 2026-05-01 11:59 | 12.47224 | 78.74577 | 33817 ft | 492 kts | 296° |
| 2026-05-01 12:00 | 12.51517 | 78.65064 | 33827 ft | 492 kts | 296° |
| 2026-05-01 12:01 | 12.55832 | 78.55492 | 33861 ft | 492 kts | 296° |
| 2026-05-01 12:01 | 12.58681 | 78.49164 | 33856 ft | 491 kts | 296° |
| 2026-05-01 12:02 | 12.61546 | 78.42801 | 33856 ft | 491 kts | 296° |
| 2026-05-01 12:02 | 12.64404 | 78.36444 | 33868 ft | 490 kts | 296° |
| 2026-05-01 12:03 | 12.67240 | 78.30135 | 33884 ft | 490 kts | 296° |
| 2026-05-01 12:03 | 12.70091 | 78.23785 | 33897 ft | 490 kts | 296° |
| 2026-05-01 12:04 | 12.72921 | 78.17477 | 33900 ft | 490 kts | 296° |
| 2026-05-01 12:04 | 12.75773 | 78.11116 | 33898 ft | 490 kts | 295° |
| 2026-05-01 12:05 | 12.78605 | 78.04795 | 33906 ft | 490 kts | 295° |
| 2026-05-01 12:05 | 12.82860 | 77.95290 | 33917 ft | 490 kts | 295° |
| 2026-05-01 12:06 | 12.85707 | 77.88922 | 33918 ft | 491 kts | 295° |
| 2026-05-01 12:06 | 12.88542 | 77.82576 | 33922 ft | 491 kts | 295° |
| 2026-05-01 12:07 | 12.91373 | 77.76235 | 33942 ft | 492 kts | 295° |
| 2026-05-01 12:07 | 12.94220 | 77.69853 | 33940 ft | 492 kts | 295° |
| 2026-05-01 12:08 | 12.97332 | 77.63602 | 33943 ft | 491 kts | 300° |
| 2026-05-01 12:08 | 13.00632 | 77.57508 | 33934 ft | 491 kts | 300° |
| 2026-05-01 12:09 | 13.03961 | 77.51366 | 33939 ft | 492 kts | 300° |
| 2026-05-01 12:09 | 13.07268 | 77.45211 | 33936 ft | 493 kts | 300° |
| 2026-05-01 12:10 | 13.12199 | 77.35986 | 33927 ft | 493 kts | 300° |
| 2026-05-01 12:11 | 13.17158 | 77.26696 | 33926 ft | 494 kts | 300° |
| 2026-05-01 12:11 | 13.20447 | 77.20531 | 33921 ft | 493 kts | 300° |
| 2026-05-01 12:12 | 13.23726 | 77.14381 | 33915 ft | 492 kts | 300° |
| 2026-05-01 12:12 | 13.27016 | 77.08207 | 33912 ft | 491 kts | 300° |
| 2026-05-01 12:13 | 13.29748 | 77.03077 | 33912 ft | 491 kts | 299° |
| 2026-05-01 12:13 | 13.33552 | 76.95926 | 33909 ft | 490 kts | 300° |
| 2026-05-01 12:14 | 13.36275 | 76.90805 | 33906 ft | 490 kts | 300° |
| 2026-05-01 12:14 | 13.39540 | 76.84661 | 33905 ft | 490 kts | 300° |
| 2026-05-01 12:15 | 13.42794 | 76.78531 | 33905 ft | 491 kts | 299° |
| 2026-05-01 12:15 | 13.46066 | 76.72366 | 33903 ft | 491 kts | 299° |
| 2026-05-01 12:16 | 13.49344 | 76.66182 | 33903 ft | 492 kts | 300° |
| 2026-05-01 12:16 | 13.52601 | 76.60033 | 33907 ft | 492 kts | 300° |
| 2026-05-01 12:17 | 13.55872 | 76.53855 | 33895 ft | 491 kts | 300° |
| 2026-05-01 12:17 | 13.59126 | 76.47703 | 33893 ft | 491 kts | 299° |
| 2026-05-01 12:18 | 13.62394 | 76.41521 | 33894 ft | 490 kts | 299° |
| 2026-05-01 12:18 | 13.65634 | 76.35386 | 33900 ft | 490 kts | 299° |
| 2026-05-01 12:19 | 13.68893 | 76.29213 | 33899 ft | 491 kts | 299° |
| 2026-05-01 12:19 | 13.72156 | 76.23026 | 33898 ft | 491 kts | 299° |
| 2026-05-01 12:20 | 13.75399 | 76.16874 | 33906 ft | 491 kts | 299° |
| 2026-05-01 12:20 | 13.78667 | 76.10668 | 33897 ft | 492 kts | 299° |
| 2026-05-01 12:21 | 13.81916 | 76.04493 | 33903 ft | 493 kts | 299° |
| 2026-05-01 12:21 | 13.85189 | 75.98270 | 33898 ft | 493 kts | 299° |
| 2026-05-01 12:22 | 13.88454 | 75.92055 | 33903 ft | 493 kts | 298° |
| 2026-05-01 12:22 | 13.91695 | 75.85882 | 33904 ft | 492 kts | 299° |
| 2026-05-01 12:23 | 13.94953 | 75.79672 | 33905 ft | 491 kts | 299° |
| 2026-05-01 12:23 | 13.98192 | 75.73492 | 33900 ft | 491 kts | 298° |
| 2026-05-01 12:24 | 14.01439 | 75.67293 | 33913 ft | 491 kts | 298° |
| 2026-05-01 12:24 | 14.04666 | 75.61127 | 33909 ft | 492 kts | 298° |
| 2026-05-01 12:25 | 14.09552 | 75.51780 | 33899 ft | 493 kts | 298° |
| 2026-05-01 12:26 | 14.12789 | 75.45565 | 34114 ft | 496 kts | 298° |
| 2026-05-01 12:26 | 14.16009 | 75.39368 | 35041 ft | 485 kts | 298° |
| 2026-05-01 12:26 | 14.17603 | 75.36299 | 35342 ft | 484 kts | 298° |
| 2026-05-01 12:27 | 14.19197 | 75.33231 | 35578 ft | 485 kts | 298° |
| 2026-05-01 12:27 | 14.22381 | 75.27097 | 35837 ft | 486 kts | 299° |
| 2026-05-01 12:28 | 14.27131 | 75.17940 | 35899 ft | 482 kts | 299° |
| 2026-05-01 12:29 | 14.31857 | 75.08818 | 35900 ft | 479 kts | 298° |
| 2026-05-01 12:29 | 14.36551 | 74.99745 | 35896 ft | 480 kts | 298° |
| 2026-05-01 12:30 | 14.41276 | 74.90603 | 35905 ft | 482 kts | 299° |
| 2026-05-01 12:31 | 14.44425 | 74.84503 | 35903 ft | 483 kts | 298° |
| 2026-05-01 12:31 | 14.47577 | 74.78395 | 35897 ft | 484 kts | 298° |
| 2026-05-01 12:32 | 14.50774 | 74.72259 | 35893 ft | 484 kts | 299° |
| 2026-05-01 12:32 | 14.55620 | 74.63144 | 35874 ft | 483 kts | 299° |
| 2026-05-01 12:33 | 14.58857 | 74.57041 | 35877 ft | 483 kts | 299° |
| 2026-05-01 12:33 | 14.62051 | 74.50998 | 35880 ft | 482 kts | 299° |
| 2026-05-01 12:34 | 14.65266 | 74.44907 | 35866 ft | 482 kts | 299° |
| 2026-05-01 12:34 | 14.68475 | 74.38823 | 35867 ft | 481 kts | 299° |
| 2026-05-01 12:35 | 14.71659 | 74.32782 | 35856 ft | 481 kts | 299° |
| 2026-05-01 12:35 | 14.74867 | 74.26692 | 35855 ft | 481 kts | 299° |
| 2026-05-01 12:36 | 14.78053 | 74.20638 | 35844 ft | 481 kts | 299° |
| 2026-05-01 12:36 | 14.81259 | 74.14540 | 35854 ft | 482 kts | 299° |
| 2026-05-01 12:37 | 14.84445 | 74.08477 | 35852 ft | 483 kts | 299° |
| 2026-05-01 12:37 | 14.87650 | 74.02371 | 35847 ft | 483 kts | 299° |
| 2026-05-01 12:38 | 14.90859 | 73.96254 | 35838 ft | 484 kts | 299° |
| 2026-05-01 12:38 | 14.94058 | 73.90126 | 35839 ft | 484 kts | 299° |
| 2026-05-01 12:39 | 14.97235 | 73.84014 | 35841 ft | 484 kts | 298° |
| 2026-05-01 12:39 | 15.00432 | 73.77865 | 35839 ft | 484 kts | 299° |
| 2026-05-01 12:40 | 15.03632 | 73.71734 | 35840 ft | 484 kts | 299° |
| 2026-05-01 12:40 | 15.06823 | 73.65627 | 35842 ft | 484 kts | 299° |
| 2026-05-01 12:41 | 15.10028 | 73.59485 | 35832 ft | 484 kts | 299° |
| 2026-05-01 12:41 | 15.13227 | 73.53345 | 35839 ft | 483 kts | 298° |
| 2026-05-01 12:42 | 15.16408 | 73.47233 | 35836 ft | 483 kts | 299° |
| 2026-05-01 12:42 | 15.19580 | 73.41134 | 35836 ft | 483 kts | 299° |
| 2026-05-01 12:43 | 15.22770 | 73.34995 | 35840 ft | 483 kts | 298° |
| 2026-05-01 12:43 | 15.25939 | 73.28893 | 35843 ft | 483 kts | 298° |
| 2026-05-01 12:44 | 15.29128 | 73.22746 | 35837 ft | 484 kts | 299° |
| 2026-05-01 12:45 | 15.35495 | 73.10458 | 35847 ft | 484 kts | 298° |
| 2026-05-01 12:45 | 15.38669 | 73.04326 | 35845 ft | 484 kts | 298° |
| 2026-05-01 12:46 | 15.41853 | 72.98168 | 35840 ft | 484 kts | 298° |
| 2026-05-01 12:46 | 15.45040 | 72.92000 | 35845 ft | 484 kts | 298° |
| 2026-05-01 12:47 | 15.48199 | 72.85881 | 35855 ft | 483 kts | 298° |
| 2026-05-01 12:47 | 15.51372 | 72.79729 | 35846 ft | 483 kts | 298° |
| 2026-05-01 12:48 | 15.54530 | 72.73601 | 35850 ft | 483 kts | 298° |
| 2026-05-01 12:48 | 15.57708 | 72.67430 | 35852 ft | 483 kts | 298° |
| 2026-05-01 12:49 | 15.60860 | 72.61304 | 35846 ft | 483 kts | 298° |
| 2026-05-01 12:49 | 15.64036 | 72.55124 | 35858 ft | 484 kts | 298° |
| 2026-05-01 12:50 | 15.67187 | 72.48989 | 35854 ft | 484 kts | 298° |
| 2026-05-01 12:50 | 15.70359 | 72.42808 | 35849 ft | 484 kts | 298° |
| 2026-05-01 12:51 | 15.73527 | 72.36629 | 35854 ft | 484 kts | 298° |
| 2026-05-01 12:52 | 15.78252 | 72.27405 | 35854 ft | 483 kts | 298° |
| 2026-05-01 12:52 | 15.82988 | 72.18144 | 35857 ft | 483 kts | 298° |
| 2026-05-01 12:53 | 15.87704 | 72.08913 | 35853 ft | 484 kts | 298° |
| 2026-05-01 12:54 | 15.90866 | 72.02718 | 35855 ft | 484 kts | 297° |
| 2026-05-01 12:54 | 15.95583 | 71.93463 | 35858 ft | 484 kts | 297° |
| 2026-05-01 12:55 | 16.00311 | 71.84176 | 35853 ft | 483 kts | 297° |
| 2026-05-01 12:56 | 16.03433 | 71.78034 | 35850 ft | 483 kts | 297° |
| 2026-05-01 12:56 | 16.06573 | 71.71851 | 35853 ft | 482 kts | 297° |
| 2026-05-01 12:57 | 16.09704 | 71.65684 | 35853 ft | 482 kts | 297° |
| 2026-05-01 12:57 | 16.14474 | 71.56503 | 35859 ft | 482 kts | 298° |
| 2026-05-01 12:58 | 16.17694 | 71.50384 | 35850 ft | 482 kts | 298° |
| 2026-05-01 12:59 | 16.22525 | 71.41154 | 35863 ft | 483 kts | 298° |
| 2026-05-01 12:59 | 16.27312 | 71.31977 | 35852 ft | 482 kts | 298° |
| 2026-05-01 13:00 | 16.32111 | 71.22766 | 35854 ft | 481 kts | 298° |
| 2026-05-01 13:01 | 16.36882 | 71.13598 | 35854 ft | 481 kts | 298° |
| 2026-05-01 13:02 | 16.41655 | 71.04413 | 35856 ft | 480 kts | 298° |
| 2026-05-01 13:07 | 16.76109 | 70.38366 | 35855 ft | 479 kts | 298° |
| 2026-05-01 13:08 | 16.79298 | 70.32246 | 35864 ft | 479 kts | 298° |
| 2026-05-01 13:08 | 16.82489 | 70.26118 | 35865 ft | 479 kts | 297° |
| 2026-05-01 13:09 | 16.85652 | 70.20037 | 35856 ft | 479 kts | 297° |
| 2026-05-01 13:09 | 16.88836 | 70.13911 | 35859 ft | 479 kts | 297° |
| 2026-05-01 13:10 | 16.91997 | 70.07823 | 35857 ft | 478 kts | 297° |
| 2026-05-01 13:10 | 16.95174 | 70.01698 | 35857 ft | 478 kts | 297° |
| 2026-05-01 13:11 | 16.98329 | 69.95611 | 35868 ft | 478 kts | 297° |
| 2026-05-01 13:11 | 17.01486 | 69.89515 | 35863 ft | 478 kts | 297° |
| 2026-05-01 13:12 | 17.04648 | 69.83401 | 35852 ft | 478 kts | 297° |
| 2026-05-01 13:12 | 17.07809 | 69.77285 | 35868 ft | 478 kts | 297° |
| 2026-05-01 13:13 | 17.10951 | 69.71201 | 35866 ft | 478 kts | 297° |
| 2026-05-01 13:13 | 17.14114 | 69.65069 | 35865 ft | 478 kts | 297° |
| 2026-05-01 13:14 | 17.17264 | 69.58958 | 35866 ft | 477 kts | 297° |
| 2026-05-01 13:14 | 17.20397 | 69.52877 | 35862 ft | 477 kts | 297° |
| 2026-05-01 13:15 | 17.23562 | 69.46772 | 35863 ft | 477 kts | 297° |
| 2026-05-01 13:15 | 17.26732 | 69.40663 | 35875 ft | 477 kts | 297° |
| 2026-05-01 13:16 | 17.29898 | 69.34547 | 35873 ft | 477 kts | 297° |
| 2026-05-01 13:16 | 17.33043 | 69.28461 | 35871 ft | 477 kts | 297° |
| 2026-05-01 13:17 | 17.39363 | 69.16215 | 35863 ft | 477 kts | 297° |
| 2026-05-01 13:18 | 17.44080 | 69.07063 | 35869 ft | 476 kts | 297° |
| 2026-05-01 13:18 | 17.47206 | 69.00989 | 35870 ft | 476 kts | 297° |
| 2026-05-01 13:19 | 17.50343 | 68.94889 | 35867 ft | 475 kts | 297° |
| 2026-05-01 13:20 | 17.55045 | 68.85734 | 35869 ft | 476 kts | 297° |
| 2026-05-01 13:20 | 17.58187 | 68.79609 | 35867 ft | 476 kts | 297° |
| 2026-05-01 13:21 | 17.62882 | 68.70445 | 35865 ft | 477 kts | 297° |
| 2026-05-01 13:21 | 17.66025 | 68.64303 | 35864 ft | 477 kts | 297° |
| 2026-05-01 13:22 | 17.69152 | 68.58190 | 35871 ft | 478 kts | 297° |
| 2026-05-01 13:22 | 17.72302 | 68.52022 | 35868 ft | 478 kts | 297° |
| 2026-05-01 13:23 | 17.75425 | 68.45902 | 35866 ft | 478 kts | 297° |
| 2026-05-01 13:23 | 17.78566 | 68.39740 | 35866 ft | 478 kts | 297° |
| 2026-05-01 13:24 | 17.81706 | 68.33575 | 35863 ft | 478 kts | 297° |
| 2026-05-01 13:25 | 17.86392 | 68.24366 | 35875 ft | 477 kts | 297° |
| 2026-05-01 13:25 | 17.89514 | 68.18219 | 35863 ft | 475 kts | 298° |
| 2026-05-01 13:26 | 17.92602 | 68.12135 | 35866 ft | 473 kts | 298° |
| 2026-05-01 13:26 | 17.95701 | 68.06025 | 35863 ft | 473 kts | 298° |
| 2026-05-01 13:27 | 17.98769 | 67.99969 | 35860 ft | 472 kts | 297° |
| 2026-05-01 13:27 | 18.03401 | 67.90812 | 35863 ft | 472 kts | 297° |
| 2026-05-01 13:28 | 18.08017 | 67.81683 | 35858 ft | 473 kts | 298° |
| 2026-05-01 13:29 | 18.14379 | 67.69558 | 35871 ft | 475 kts | 299° |
| 2026-05-01 13:31 | 18.23928 | 67.51353 | 35861 ft | 474 kts | 299° |
| 2026-05-01 13:32 | 18.31840 | 67.36196 | 35859 ft | 472 kts | 299° |
| 2026-05-01 13:33 | 18.39730 | 67.21049 | 35864 ft | 472 kts | 299° |
| 2026-05-01 13:34 | 18.46026 | 67.08933 | 35865 ft | 472 kts | 299° |
| 2026-05-01 13:35 | 18.50768 | 66.99794 | 35861 ft | 473 kts | 299° |
| 2026-05-01 13:36 | 18.55491 | 66.90676 | 35869 ft | 474 kts | 299° |
| 2026-05-01 13:36 | 18.60240 | 66.81495 | 35858 ft | 475 kts | 300° |
| 2026-05-01 13:37 | 18.63383 | 66.75412 | 35860 ft | 474 kts | 299° |
| 2026-05-01 13:37 | 18.66539 | 66.69297 | 35855 ft | 474 kts | 299° |
| 2026-05-01 13:38 | 18.71251 | 66.60156 | 35855 ft | 473 kts | 299° |
| 2026-05-01 13:39 | 18.74397 | 66.54044 | 35858 ft | 472 kts | 299° |
| 2026-05-01 13:39 | 18.77517 | 66.47979 | 35851 ft | 472 kts | 299° |
| 2026-05-01 13:40 | 18.80648 | 66.41885 | 35851 ft | 472 kts | 299° |
| 2026-05-01 13:40 | 18.83762 | 66.35818 | 35865 ft | 471 kts | 299° |
| 2026-05-01 13:41 | 18.86895 | 66.29708 | 35858 ft | 472 kts | 299° |
| 2026-05-01 13:41 | 18.90021 | 66.23605 | 35858 ft | 471 kts | 299° |
| 2026-05-01 13:42 | 18.93124 | 66.17541 | 35855 ft | 471 kts | 299° |
| 2026-05-01 13:42 | 18.96243 | 66.11442 | 35856 ft | 471 kts | 299° |
| 2026-05-01 13:43 | 18.99362 | 66.05334 | 35849 ft | 471 kts | 299° |
| 2026-05-01 13:43 | 19.02451 | 65.99278 | 35854 ft | 471 kts | 299° |
| 2026-05-01 13:44 | 19.05569 | 65.93160 | 35851 ft | 471 kts | 299° |
| 2026-05-01 13:44 | 19.08675 | 65.87060 | 35856 ft | 471 kts | 298° |
| 2026-05-01 13:45 | 19.11785 | 65.80946 | 35858 ft | 472 kts | 298° |
| 2026-05-01 13:45 | 19.14879 | 65.74857 | 35855 ft | 471 kts | 298° |
| 2026-05-01 13:46 | 19.17966 | 65.68775 | 35853 ft | 471 kts | 298° |
| 2026-05-01 13:46 | 19.21069 | 65.62654 | 35854 ft | 471 kts | 298° |
| 2026-05-01 13:47 | 19.24176 | 65.56522 | 35852 ft | 471 kts | 298° |
| 2026-05-01 13:47 | 19.27245 | 65.50456 | 35855 ft | 471 kts | 298° |
| 2026-05-01 13:48 | 19.30343 | 65.44327 | 35853 ft | 470 kts | 298° |
| 2026-05-01 13:48 | 19.33415 | 65.38243 | 35856 ft | 471 kts | 298° |
| 2026-05-01 13:49 | 19.36506 | 65.32115 | 35858 ft | 471 kts | 298° |
| 2026-05-01 13:49 | 19.39579 | 65.26017 | 35854 ft | 471 kts | 298° |
| 2026-05-01 13:50 | 19.42671 | 65.19875 | 35855 ft | 471 kts | 298° |
| 2026-05-01 13:50 | 19.45234 | 65.14777 | 35855 ft | 471 kts | 298° |
| 2026-05-01 13:51 | 19.48311 | 65.08651 | 35855 ft | 471 kts | 298° |
| 2026-05-01 13:51 | 19.51380 | 65.02536 | 35854 ft | 471 kts | 298° |
| 2026-05-01 13:52 | 19.54481 | 64.96403 | 35854 ft | 471 kts | 298° |
| 2026-05-01 13:52 | 19.57630 | 64.90305 | 35853 ft | 471 kts | 298° |
| 2026-05-01 13:53 | 19.60762 | 64.84249 | 35850 ft | 471 kts | 298° |
| 2026-05-01 13:53 | 19.65473 | 64.75096 | 35853 ft | 470 kts | 298° |
| 2026-05-01 13:54 | 19.68583 | 64.69035 | 35852 ft | 470 kts | 298° |
| 2026-05-01 13:54 | 19.71717 | 64.62922 | 35851 ft | 470 kts | 298° |
| 2026-05-01 13:55 | 19.74822 | 64.56858 | 35853 ft | 470 kts | 298° |
| 2026-05-01 13:55 | 19.77949 | 64.50746 | 35850 ft | 469 kts | 298° |
| 2026-05-01 13:56 | 19.81053 | 64.44673 | 35852 ft | 469 kts | 298° |
| 2026-05-01 13:56 | 19.84167 | 64.38572 | 35852 ft | 469 kts | 298° |
| 2026-05-01 13:57 | 19.87266 | 64.32498 | 35849 ft | 469 kts | 297° |
| 2026-05-01 13:57 | 19.90376 | 64.26392 | 35849 ft | 469 kts | 297° |
| 2026-05-01 13:58 | 19.93479 | 64.20295 | 35849 ft | 468 kts | 297° |
| 2026-05-01 13:58 | 19.96557 | 64.14239 | 35850 ft | 468 kts | 297° |
| 2026-05-01 13:59 | 19.99656 | 64.08137 | 35849 ft | 468 kts | 297° |
| 2026-05-01 13:59 | 20.02749 | 64.02041 | 35848 ft | 468 kts | 297° |
| 2026-05-01 14:00 | 20.05818 | 63.95985 | 35851 ft | 468 kts | 297° |
| 2026-05-01 14:00 | 20.08904 | 63.89887 | 35850 ft | 467 kts | 297° |
| 2026-05-01 14:01 | 20.11978 | 63.83809 | 35853 ft | 467 kts | 297° |
| 2026-05-01 14:01 | 20.15057 | 63.77713 | 35852 ft | 468 kts | 297° |
| 2026-05-01 14:02 | 20.18141 | 63.71601 | 35849 ft | 468 kts | 297° |
| 2026-05-01 14:02 | 20.21223 | 63.65486 | 35847 ft | 468 kts | 297° |
| 2026-05-01 14:03 | 20.24280 | 63.59415 | 35845 ft | 468 kts | 297° |
| 2026-05-01 14:03 | 20.27356 | 63.53298 | 35847 ft | 468 kts | 297° |
| 2026-05-01 14:04 | 20.30417 | 63.47205 | 35851 ft | 468 kts | 297° |
| 2026-05-01 14:04 | 20.33486 | 63.41090 | 35848 ft | 468 kts | 297° |
| 2026-05-01 14:05 | 20.36557 | 63.34965 | 35846 ft | 467 kts | 297° |
| 2026-05-01 14:05 | 20.39601 | 63.28887 | 35840 ft | 467 kts | 296° |
| 2026-05-01 14:06 | 20.42659 | 63.22773 | 35841 ft | 466 kts | 296° |
| 2026-05-01 14:06 | 20.45709 | 63.16669 | 35840 ft | 466 kts | 296° |
| 2026-05-01 14:07 | 20.48754 | 63.10567 | 35841 ft | 465 kts | 296° |
| 2026-05-01 14:08 | 20.53301 | 63.01446 | 35840 ft | 465 kts | 296° |
| 2026-05-01 14:08 | 20.56338 | 62.95345 | 35840 ft | 465 kts | 296° |
| 2026-05-01 14:09 | 20.59354 | 62.89278 | 35840 ft | 465 kts | 296° |
| 2026-05-01 14:09 | 20.62391 | 62.83162 | 35839 ft | 465 kts | 296° |
| 2026-05-01 14:10 | 20.65406 | 62.77086 | 35841 ft | 465 kts | 296° |
| 2026-05-01 14:10 | 20.68438 | 62.70966 | 35835 ft | 465 kts | 296° |
| 2026-05-01 14:11 | 20.71446 | 62.64891 | 35840 ft | 465 kts | 296° |
| 2026-05-01 14:11 | 20.75984 | 62.55711 | 35845 ft | 465 kts | 296° |
| 2026-05-01 14:12 | 20.78987 | 62.49626 | 35835 ft | 465 kts | 296° |
| 2026-05-01 14:12 | 20.82006 | 62.43505 | 35840 ft | 465 kts | 296° |
| 2026-05-01 14:13 | 20.84514 | 62.38412 | 35833 ft | 465 kts | 296° |
| 2026-05-01 14:13 | 20.88022 | 62.31282 | 35833 ft | 465 kts | 296° |
| 2026-05-01 14:14 | 20.91034 | 62.25153 | 35836 ft | 465 kts | 296° |
| 2026-05-01 14:14 | 20.94054 | 62.19002 | 35835 ft | 465 kts | 296° |
| 2026-05-01 14:15 | 20.97045 | 62.12902 | 35840 ft | 465 kts | 296° |
| 2026-05-01 14:15 | 21.00052 | 62.06761 | 35834 ft | 465 kts | 296° |
| 2026-05-01 14:16 | 21.03037 | 62.00660 | 35830 ft | 464 kts | 296° |
| 2026-05-01 14:16 | 21.06034 | 61.94527 | 35830 ft | 464 kts | 296° |
| 2026-05-01 14:17 | 21.09014 | 61.88420 | 35832 ft | 464 kts | 296° |
| 2026-05-01 14:17 | 21.12012 | 61.82270 | 35833 ft | 464 kts | 296° |
| 2026-05-01 14:18 | 21.14998 | 61.76138 | 35833 ft | 464 kts | 296° |
| 2026-05-01 14:18 | 21.17466 | 61.71065 | 35833 ft | 464 kts | 296° |
| 2026-05-01 14:19 | 21.20935 | 61.63859 | 35836 ft | 464 kts | 294° |
| 2026-05-01 14:19 | 21.23422 | 61.57530 | 35838 ft | 463 kts | 291° |
| 2026-05-01 14:20 | 21.27054 | 61.47922 | 35834 ft | 463 kts | 291° |
| 2026-05-01 14:21 | 21.29476 | 61.41554 | 35827 ft | 463 kts | 291° |
| 2026-05-01 14:21 | 21.31924 | 61.35138 | 35829 ft | 463 kts | 291° |
| 2026-05-01 14:22 | 21.35571 | 61.25575 | 35829 ft | 463 kts | 291° |
| 2026-05-01 14:22 | 21.38009 | 61.19171 | 35834 ft | 463 kts | 291° |
| 2026-05-01 14:23 | 21.40442 | 61.12771 | 35831 ft | 462 kts | 291° |
| 2026-05-01 14:23 | 21.42872 | 61.06369 | 35830 ft | 462 kts | 291° |
| 2026-05-01 14:24 | 21.45277 | 61.00023 | 35832 ft | 461 kts | 291° |
| 2026-05-01 14:24 | 21.47697 | 60.93630 | 35827 ft | 460 kts | 291° |
| 2026-05-01 14:25 | 21.50091 | 60.87298 | 35827 ft | 460 kts | 291° |
| 2026-05-01 14:25 | 21.52501 | 60.80915 | 35827 ft | 460 kts | 291° |
| 2026-05-01 14:26 | 21.56106 | 60.71351 | 35828 ft | 459 kts | 291° |
| 2026-05-01 14:27 | 21.58491 | 60.65013 | 35830 ft | 459 kts | 290° |
| 2026-05-01 14:27 | 21.60886 | 60.58639 | 35821 ft | 459 kts | 290° |
| 2026-05-01 14:28 | 21.64455 | 60.49126 | 35822 ft | 458 kts | 290° |
| 2026-05-01 14:28 | 21.66840 | 60.42757 | 35820 ft | 458 kts | 290° |
| 2026-05-01 14:29 | 21.69204 | 60.36438 | 35821 ft | 458 kts | 290° |
| 2026-05-01 14:30 | 21.73947 | 60.23730 | 35825 ft | 458 kts | 290° |
| 2026-05-01 14:31 | 21.77508 | 60.14168 | 35827 ft | 458 kts | 290° |
| 2026-05-01 14:31 | 21.79862 | 60.07836 | 35820 ft | 457 kts | 290° |
| 2026-05-01 14:32 | 21.82222 | 60.01479 | 35817 ft | 457 kts | 290° |
| 2026-05-01 14:32 | 21.84582 | 59.95114 | 35819 ft | 456 kts | 290° |
| 2026-05-01 14:33 | 21.86918 | 59.88805 | 35817 ft | 455 kts | 290° |
| 2026-05-01 14:33 | 21.89262 | 59.82463 | 35822 ft | 455 kts | 290° |
| 2026-05-01 14:34 | 21.91589 | 59.76163 | 35820 ft | 455 kts | 290° |
| 2026-05-01 14:34 | 21.93924 | 59.69829 | 35822 ft | 454 kts | 290° |
| 2026-05-01 14:35 | 21.96265 | 59.63473 | 35828 ft | 454 kts | 290° |
| 2026-05-01 14:35 | 21.98581 | 59.57174 | 35832 ft | 454 kts | 290° |
| 2026-05-01 14:36 | 22.00904 | 59.50848 | 35823 ft | 453 kts | 290° |
| 2026-05-01 14:36 | 22.03210 | 59.44560 | 35821 ft | 452 kts | 290° |
| 2026-05-01 14:37 | 22.05527 | 59.38232 | 35822 ft | 451 kts | 290° |
| 2026-05-01 14:37 | 22.07812 | 59.31985 | 35819 ft | 451 kts | 290° |
| 2026-05-01 14:38 | 22.10122 | 59.25658 | 35818 ft | 452 kts | 290° |
| 2026-05-01 14:38 | 22.12425 | 59.19344 | 35825 ft | 453 kts | 290° |
| 2026-05-01 14:39 | 22.14722 | 59.13035 | 35819 ft | 455 kts | 290° |
| 2026-05-01 14:39 | 22.17039 | 59.06664 | 35819 ft | 456 kts | 290° |
| 2026-05-01 14:40 | 22.19353 | 59.00291 | 35806 ft | 456 kts | 290° |
| 2026-05-01 14:40 | 22.21658 | 58.93937 | 35810 ft | 457 kts | 290° |
| 2026-05-01 14:41 | 22.23656 | 58.88631 | 35818 ft | 458 kts | 294° |
| 2026-05-01 14:41 | 22.27107 | 58.81543 | 35815 ft | 458 kts | 296° |
| 2026-05-01 14:42 | 22.29623 | 58.76488 | 35803 ft | 458 kts | 296° |
| 2026-05-01 14:42 | 22.32630 | 58.70401 | 35815 ft | 457 kts | 296° |
| 2026-05-01 14:43 | 22.35593 | 58.64359 | 35799 ft | 457 kts | 296° |
| 2026-05-01 14:43 | 22.38567 | 58.58277 | 35802 ft | 456 kts | 296° |
| 2026-05-01 14:44 | 22.41526 | 58.52219 | 35799 ft | 455 kts | 296° |
| 2026-05-01 14:44 | 22.45943 | 58.43163 | 35801 ft | 454 kts | 296° |
| 2026-05-01 14:45 | 22.50341 | 58.34132 | 35814 ft | 454 kts | 295° |
| 2026-05-01 14:46 | 22.53286 | 58.28077 | 35806 ft | 454 kts | 295° |
| 2026-05-01 14:46 | 22.57680 | 58.19026 | 35795 ft | 453 kts | 295° |
| 2026-05-01 14:47 | 22.60611 | 58.12979 | 35803 ft | 453 kts | 295° |
| 2026-05-01 14:48 | 22.64986 | 58.03942 | 35811 ft | 453 kts | 295° |
| 2026-05-01 14:48 | 22.69371 | 57.94867 | 35835 ft | 454 kts | 295° |
| 2026-05-01 14:49 | 22.75210 | 57.82758 | 35819 ft | 454 kts | 295° |
| 2026-05-01 14:50 | 22.81035 | 57.70649 | 35824 ft | 453 kts | 295° |
| 2026-05-01 14:51 | 22.85404 | 57.61546 | 35856 ft | 453 kts | 295° |
| 2026-05-01 14:52 | 22.89747 | 57.52482 | 35861 ft | 453 kts | 295° |
| 2026-05-01 14:53 | 22.94099 | 57.43381 | 35872 ft | 451 kts | 295° |
| 2026-05-01 14:53 | 22.96967 | 57.37374 | 35862 ft | 450 kts | 295° |
| 2026-05-01 14:54 | 22.99852 | 57.31324 | 35892 ft | 450 kts | 295° |
| 2026-05-01 14:54 | 23.02738 | 57.25274 | 35877 ft | 450 kts | 295° |
| 2026-05-01 14:55 | 23.05607 | 57.19259 | 35886 ft | 450 kts | 295° |
| 2026-05-01 14:55 | 23.08477 | 57.13234 | 35898 ft | 450 kts | 294° |
| 2026-05-01 14:56 | 23.11357 | 57.07174 | 35889 ft | 450 kts | 294° |
| 2026-05-01 14:56 | 23.14212 | 57.01165 | 35881 ft | 449 kts | 294° |
| 2026-05-01 14:57 | 23.17081 | 56.95116 | 35894 ft | 450 kts | 294° |
| 2026-05-01 14:57 | 23.21373 | 56.86048 | 35891 ft | 451 kts | 294° |
| 2026-05-01 14:58 | 23.24251 | 56.79963 | 35871 ft | 452 kts | 294° |
| 2026-05-01 14:58 | 23.27130 | 56.73867 | 35875 ft | 453 kts | 294° |
| 2026-05-01 14:59 | 23.29992 | 56.67800 | 35864 ft | 453 kts | 294° |
| 2026-05-01 14:59 | 23.32870 | 56.61689 | 35851 ft | 452 kts | 294° |
| 2026-05-01 15:00 | 23.37156 | 56.52579 | 35873 ft | 451 kts | 294° |
| 2026-05-01 15:01 | 23.39991 | 56.46539 | 35862 ft | 450 kts | 294° |
| 2026-05-01 15:01 | 23.42839 | 56.40466 | 35864 ft | 449 kts | 294° |
| 2026-05-01 15:02 | 23.45676 | 56.34409 | 35863 ft | 448 kts | 294° |
| 2026-05-01 15:02 | 23.48491 | 56.28391 | 35871 ft | 447 kts | 293° |
| 2026-05-01 15:03 | 23.51314 | 56.22349 | 35858 ft | 446 kts | 293° |
| 2026-05-01 15:03 | 23.54125 | 56.16326 | 35854 ft | 445 kts | 293° |
| 2026-05-01 15:04 | 23.56909 | 56.10339 | 35871 ft | 444 kts | 293° |
| 2026-05-01 15:04 | 23.59685 | 56.04324 | 35859 ft | 443 kts | 293° |
| 2026-05-01 15:05 | 23.62458 | 55.98309 | 35852 ft | 443 kts | 293° |
| 2026-05-01 15:05 | 23.65233 | 55.92284 | 35857 ft | 444 kts | 293° |
| 2026-05-01 15:06 | 23.67993 | 55.86287 | 35848 ft | 444 kts | 292° |
| 2026-05-01 15:06 | 23.70765 | 55.80262 | 35860 ft | 444 kts | 293° |
| 2026-05-01 15:07 | 23.73544 | 55.74270 | 35853 ft | 444 kts | 293° |
| 2026-05-01 15:07 | 23.76337 | 55.68251 | 35848 ft | 444 kts | 293° |
| 2026-05-01 15:08 | 23.79114 | 55.62249 | 35861 ft | 444 kts | 292° |
| 2026-05-01 15:08 | 23.81896 | 55.56228 | 35846 ft | 443 kts | 292° |
| 2026-05-01 15:09 | 23.84600 | 55.50170 | 35845 ft | 441 kts | 290° |
| 2026-05-01 15:09 | 23.87052 | 55.44056 | 35841 ft | 441 kts | 290° |
| 2026-05-01 15:10 | 23.89575 | 55.37930 | 35842 ft | 441 kts | 290° |
| 2026-05-01 15:10 | 23.93610 | 55.28915 | 35840 ft | 445 kts | 298° |
| 2026-05-01 15:11 | 23.98676 | 55.20352 | 35833 ft | 446 kts | 298° |
| 2026-05-01 15:12 | 24.02015 | 55.14667 | 35828 ft | 446 kts | 298° |
| 2026-05-01 15:12 | 24.07037 | 55.06055 | 35826 ft | 447 kts | 298° |
| 2026-05-01 15:14 | 24.15383 | 54.91748 | 35823 ft | 447 kts | 298° |
| 2026-05-01 15:14 | 24.20416 | 54.83152 | 35809 ft | 446 kts | 298° |
| 2026-05-01 15:15 | 24.27111 | 54.71679 | 35801 ft | 446 kts | 297° |
| 2026-05-01 15:16 | 24.33742 | 54.60288 | 35810 ft | 445 kts | 297° |
| 2026-05-01 15:18 | 24.40463 | 54.45358 | 35801 ft | 434 kts | 281° |
| 2026-05-01 15:19 | 24.43305 | 54.32463 | 35819 ft | 434 kts | 280° |
| 2026-05-01 15:19 | 24.45432 | 54.22818 | 35824 ft | 435 kts | 280° |
| 2026-05-01 15:20 | 24.47572 | 54.13160 | 35818 ft | 435 kts | 280° |
| 2026-05-01 15:21 | 24.49001 | 54.06692 | 35823 ft | 435 kts | 280° |
| 2026-05-01 15:21 | 24.50418 | 54.00264 | 35826 ft | 435 kts | 280° |
| 2026-05-01 15:22 | 24.52557 | 53.90561 | 35828 ft | 435 kts | 281° |
| 2026-05-01 15:22 | 24.54144 | 53.84134 | 35840 ft | 436 kts | 282° |
| 2026-05-01 15:23 | 24.55781 | 53.77760 | 35827 ft | 435 kts | 282° |
| 2026-05-01 15:23 | 24.57410 | 53.71347 | 35849 ft | 435 kts | 281° |
| 2026-05-01 15:24 | 24.59009 | 53.64980 | 35564 ft | 431 kts | 281° |
| 2026-05-01 15:24 | 24.59802 | 53.61812 | 35045 ft | 428 kts | 281° |
| 2026-05-01 15:24 | 24.60585 | 53.58673 | 34538 ft | 424 kts | 281° |
| 2026-05-01 15:25 | 24.61363 | 53.55555 | 34075 ft | 420 kts | 281° |
| 2026-05-01 15:25 | 24.62134 | 53.52459 | 33608 ft | 416 kts | 281° |
| 2026-05-01 15:25 | 24.62884 | 53.49444 | 33191 ft | 410 kts | 281° |
| 2026-05-01 15:25 | 24.63631 | 53.46446 | 32923 ft | 401 kts | 281° |
| 2026-05-01 15:26 | 24.64362 | 53.43508 | 32659 ft | 392 kts | 281° |
| 2026-05-01 15:26 | 24.65076 | 53.40633 | 32393 ft | 386 kts | 281° |
| 2026-05-01 15:26 | 24.65777 | 53.37800 | 32150 ft | 383 kts | 281° |
| 2026-05-01 15:26 | 24.66466 | 53.35015 | 31908 ft | 381 kts | 281° |
| 2026-05-01 15:27 | 24.67160 | 53.32204 | 31668 ft | 379 kts | 282° |
| 2026-05-01 15:27 | 24.67849 | 53.29413 | 31434 ft | 377 kts | 282° |
| 2026-05-01 15:27 | 24.68537 | 53.26628 | 31220 ft | 376 kts | 282° |
| 2026-05-01 15:28 | 24.69903 | 53.21087 | 30755 ft | 373 kts | 282° |
| 2026-05-01 15:28 | 24.70574 | 53.18366 | 30533 ft | 372 kts | 282° |
| 2026-05-01 15:28 | 24.71251 | 53.15614 | 30230 ft | 373 kts | 282° |
| 2026-05-01 15:29 | 24.72612 | 53.10076 | 29495 ft | 375 kts | 282° |
| 2026-05-01 15:29 | 24.73284 | 53.07341 | 29099 ft | 373 kts | 282° |
| 2026-05-01 15:29 | 24.74625 | 53.01882 | 28297 ft | 365 kts | 282° |
| 2026-05-01 15:30 | 24.75720 | 52.97414 | 27516 ft | 361 kts | 282° |
| 2026-05-01 15:31 | 24.78300 | 52.86853 | 25733 ft | 353 kts | 282° |
| 2026-05-01 15:31 | 24.79561 | 52.81678 | 24864 ft | 351 kts | 282° |
| 2026-05-01 15:32 | 24.80823 | 52.76487 | 23977 ft | 350 kts | 283° |
| 2026-05-01 15:32 | 24.82083 | 52.71302 | 23048 ft | 350 kts | 283° |
| 2026-05-01 15:33 | 24.83944 | 52.63631 | 21724 ft | 344 kts | 283° |
| 2026-05-01 15:34 | 24.85790 | 52.56038 | 20458 ft | 339 kts | 282° |